Time;durP1;ratioP1;P1;durP2;ratioP2;P2;SDS_P1;SDS_P2;PMS_P1;PMS_P2;Temp;Humidity;BMP_temperature;BMP_pressure;BME280_temperature;BME280_humidity;BME280_pressure;Samples;Min_cycle;Max_cycle;Signal;HPM_P1;HPM_P2
2023/01/11 00:00:47;;;;;;;0.00;0.00;;;;;;;;;;1736069;28;20242;-74
2023/01/11 00:01:39;;;;;;;0.00;0.00;;;;;;;;;;1735147;28;20219;-74
2023/01/11 00:02:31;;;;;;;0.00;0.00;;;;;;;;;;1738896;28;20246;-73
2023/01/11 00:03:23;;;;;;;0.00;0.00;;;;;;;;;;1737303;28;20195;-73
2023/01/11 00:04:14;;;;;;;0.00;0.00;;;;;;;;;;1739468;28;20260;-74
2023/01/11 00:05:08;;;;;;;0.00;0.00;;;;;;;;;;1737414;28;20265;-74
2023/01/11 00:05:59;;;;;;;0.00;0.00;;;;;;;;;;1731024;28;20266;-74
2023/01/11 00:06:51;;;;;;;0.00;0.00;;;;;;;;;;1735851;28;20207;-73
2023/01/11 00:07:42;;;;;;;0.00;0.00;;;;;;;;;;1739366;28;20328;-73
2023/01/11 00:08:34;;;;;;;0.00;0.00;;;;;;;;;;1736808;28;20223;-74
2023/01/11 00:09:25;;;;;;;0.00;0.00;;;;;;;;;;1739375;28;20614;-74
2023/01/11 00:10:17;;;;;;;0.00;0.00;;;;;;;;;;1735245;28;20214;-74
2023/01/11 00:11:13;;;;;;;0.00;0.00;;;;;;;;;;1733625;28;20228;-73
2023/01/11 00:12:04;;;;;;;0.00;0.00;;;;;;;;;;1736780;28;20707;-73
2023/01/11 00:12:56;;;;;;;0.00;0.00;;;;;;;;;;1739120;28;20238;-74
2023/01/11 00:13:47;;;;;;;0.00;0.00;;;;;;;;;;1738888;28;20250;-73
2023/01/11 00:14:39;;;;;;;0.00;0.00;;;;;;;;;;1739261;28;20217;-74
2023/01/11 00:15:30;;;;;;;0.00;0.00;;;;;;;;;;1734576;28;20278;-74
2023/01/11 00:16:23;;;;;;;0.00;0.00;;;;;;;;;;1734295;28;20249;-74
2023/01/11 00:17:14;;;;;;;0.00;0.00;;;;;;;;;;1736668;28;20199;-74
2023/01/11 00:18:06;;;;;;;0.00;0.00;;;;;;;;;;1739452;28;20272;-74
2023/01/11 00:18:57;;;;;;;0.00;0.00;;;;;;;;;;1737392;28;20229;-74
2023/01/11 00:19:49;;;;;;;0.00;0.00;;;;;;;;;;1738298;28;20217;-74
2023/01/11 00:20:40;;;;;;;0.00;0.00;;;;;;;;;;1734187;28;20238;-74
2023/01/11 00:21:32;;;;;;;0.00;0.00;;;;;;;;;;1735172;28;20276;-74
2023/01/11 00:22:23;;;;;;;0.00;0.00;;;;;;;;;;1736547;28;20231;-73
2023/01/11 00:23:15;;;;;;;0.00;0.00;;;;;;;;;;1738759;28;20245;-74
2023/01/11 00:24:06;;;;;;;0.00;0.00;;;;;;;;;;1739610;28;20528;-74
2023/01/11 00:24:58;;;;;;;0.00;0.00;;;;;;;;;;1735530;28;20206;-73
2023/01/11 00:25:49;;;;;;;0.00;0.00;;;;;;;;;;1733786;28;20357;-74
2023/01/11 00:26:41;;;;;;;0.00;0.00;;;;;;;;;;1735164;28;20207;-74
2023/01/11 00:27:32;;;;;;;0.00;0.00;;;;;;;;;;1738932;28;20550;-73
2023/01/11 00:28:24;;;;;;;0.00;0.00;;;;;;;;;;1735355;28;20882;-73
2023/01/11 00:29:15;;;;;;;0.00;0.00;;;;;;;;;;1735109;28;20276;-73
2023/01/11 00:30:08;;;;;;;0.00;0.00;;;;;;;;;;1738974;28;20195;-73
2023/01/11 00:30:59;;;;;;;0.00;0.00;;;;;;;;;;1732391;28;20608;-73
2023/01/11 00:31:53;;;;;;;0.00;0.00;;;;;;;;;;1737318;28;20305;-72
2023/01/11 00:32:44;;;;;;;0.00;0.00;;;;;;;;;;1740253;28;20637;-72
2023/01/11 00:33:36;;;;;;;0.00;0.00;;;;;;;;;;1737348;28;20208;-72
2023/01/11 00:34:27;;;;;;;0.00;0.00;;;;;;;;;;1739507;28;20199;-72
2023/01/11 00:35:19;;;;;;;0.00;0.00;;;;;;;;;;1735565;28;20194;-74
2023/01/11 00:36:10;;;;;;;0.00;0.00;;;;;;;;;;1739007;28;20658;-74
2023/01/11 00:37:03;;;;;;;0.00;0.00;;;;;;;;;;1737299;28;20234;-74
2023/01/11 00:37:54;;;;;;;0.00;0.00;;;;;;;;;;1739866;28;20214;-74
2023/01/11 00:38:50;;;;;;;0.00;0.00;;;;;;;;;;1736924;28;20626;-73
2023/01/11 00:39:41;;;;;;;0.00;0.00;;;;;;;;;;1737535;28;20211;-73
2023/01/11 00:40:33;;;;;;;0.00;0.00;;;;;;;;;;1735380;28;20249;-73
2023/01/11 00:48:30;;;;;;;0.00;0.00;;;;;;;;;;1737445;28;20218;-73
2023/01/11 00:49:21;;;;;;;0.00;0.00;;;;;;;;;;1739755;28;20602;-74
2023/01/11 00:50:13;;;;;;;0.00;0.00;;;;;;;;;;1736200;28;20277;-73
2023/01/11 00:51:04;;;;;;;0.00;0.00;;;;;;;;;;1734063;28;20300;-72
2023/01/11 00:51:56;;;;;;;0.00;0.00;;;;;;;;;;1736617;28;20624;-72
2023/01/11 00:52:47;;;;;;;0.00;0.00;;;;;;;;;;1739795;28;20214;-72
2023/01/11 00:53:39;;;;;;;0.00;0.00;;;;;;;;;;1736968;28;20207;-72
2023/01/11 00:54:30;;;;;;;0.00;0.00;;;;;;;;;;1739728;28;20690;-72
2023/01/11 00:55:22;;;;;;;0.00;0.00;;;;;;;;;;1735191;28;20239;-73
2023/01/11 00:56:13;;;;;;;0.00;0.00;;;;;;;;;;1734310;28;20204;-73
2023/01/11 00:57:06;;;;;;;0.10;0.10;;;;;;;;;;1737339;28;20196;-73
2023/01/11 00:57:57;;;;;;;0.00;0.00;;;;;;;;;;1739311;28;20468;-73
2023/01/11 00:58:48;;;;;;;0.00;0.00;;;;;;;;;;1736834;28;20253;-73
2023/01/11 00:59:40;;;;;;;0.00;0.00;;;;;;;;;;1743299;28;20213;-74
2023/01/11 01:00:31;;;;;;;0.00;0.00;;;;;;;;;;1746357;28;20687;-73
2023/01/11 01:01:23;;;;;;;0.00;0.00;;;;;;;;;;1746726;28;20199;-73
2023/01/11 01:02:14;;;;;;;0.00;0.00;;;;;;;;;;1737433;28;20570;-73
2023/01/11 01:03:08;;;;;;;0.00;0.00;;;;;;;;;;1746965;28;20206;-73
2023/01/11 01:04:00;;;;;;;0.00;0.00;;;;;;;;;;1746643;28;20628;-72
2023/01/11 01:04:52;;;;;;;0.00;0.00;;;;;;;;;;1747423;28;20207;-72
2023/01/11 01:05:43;;;;;;;0.00;0.00;;;;;;;;;;1747288;28;20655;-72
2023/01/11 01:06:35;;;;;;;0.00;0.00;;;;;;;;;;1743639;28;20209;-72
2023/01/11 01:07:26;;;;;;;0.00;0.00;;;;;;;;;;1740359;28;20271;-72
2023/01/11 01:08:18;;;;;;;0.00;0.00;;;;;;;;;;1746258;28;20199;-72
2023/01/11 01:09:09;;;;;;;0.05;0.05;;;;;;;;;;1743718;28;20266;-72
2023/01/11 01:10:04;;;;;;;0.00;0.00;;;;;;;;;;1746350;28;20194;-73
2023/01/11 01:10:55;;;;;;;0.00;0.00;;;;;;;;;;1746900;28;20263;-72
2023/01/11 01:11:47;;;;;;;0.00;0.00;;;;;;;;;;1740874;28;20732;-72
2023/01/11 01:14:58;;;;;;;0.00;0.00;;;;;;;;;;1745679;28;20258;-73
2023/01/11 01:15:49;;;;;;;0.00;0.00;;;;;;;;;;1744859;28;20287;-74
2023/01/11 01:16:41;;;;;;;0.00;0.00;;;;;;;;;;1741951;28;20203;-73
2023/01/11 01:17:32;;;;;;;0.00;0.00;;;;;;;;;;1742076;28;20207;-74
2023/01/11 01:18:25;;;;;;;0.00;0.00;;;;;;;;;;1745923;28;20289;-73
2023/01/11 01:19:16;;;;;;;0.00;0.00;;;;;;;;;;1743182;28;20440;-73
2023/01/11 01:20:08;;;;;;;0.00;0.00;;;;;;;;;;1746729;28;20206;-73
2023/01/11 01:21:00;;;;;;;0.00;0.00;;;;;;;;;;1742432;28;20725;-74
2023/01/11 01:21:51;;;;;;;0.00;0.00;;;;;;;;;;1740372;28;20361;-73
2023/01/11 01:22:43;;;;;;;0.00;0.00;;;;;;;;;;1743447;28;20232;-74
2023/01/11 01:23:34;;;;;;;0.00;0.00;;;;;;;;;;1745084;28;20210;-74
2023/01/11 01:24:27;;;;;;;0.00;0.00;;;;;;;;;;1741329;28;20729;-74
2023/01/11 01:25:19;;;;;;;0.00;0.00;;;;;;;;;;1745889;28;20295;-73
2023/01/11 01:26:11;;;;;;;0.00;0.00;;;;;;;;;;1747139;28;20205;-73
2023/01/11 01:27:02;;;;;;;0.00;0.00;;;;;;;;;;1746054;28;20267;-73
2023/01/11 01:27:54;;;;;;;0.00;0.00;;;;;;;;;;1745931;28;20626;-73
2023/01/11 01:28:45;;;;;;;0.00;0.00;;;;;;;;;;1743246;28;20275;-73
2023/01/11 01:29:37;;;;;;;0.10;0.10;;;;;;;;;;1745970;28;20216;-73
2023/01/11 01:30:28;;;;;;;0.00;0.00;;;;;;;;;;1746096;28;20908;-73
2023/01/11 01:31:19;;;;;;;0.00;0.00;;;;;;;;;;1746198;28;20632;-74
2023/01/11 01:32:11;;;;;;;0.00;0.00;;;;;;;;;;1737577;28;20585;-73
2023/01/11 01:33:02;;;;;;;0.00;0.00;;;;;;;;;;1746274;28;20198;-74
2023/01/11 01:33:56;;;;;;;0.00;0.00;;;;;;;;;;1743280;28;20206;-74
2023/01/11 01:34:47;;;;;;;0.00;0.00;;;;;;;;;;1745564;28;20351;-74
2023/01/11 01:35:38;;;;;;;0.00;0.00;;;;;;;;;;1746886;28;20233;-74
2023/01/11 01:36:29;;;;;;;0.00;0.00;;;;;;;;;;1744928;28;20218;-74
2023/01/11 01:37:21;;;;;;;0.00;0.00;;;;;;;;;;1739284;28;20195;-74
2023/01/11 01:38:12;;;;;;;0.00;0.00;;;;;;;;;;1746113;28;20206;-73
2023/01/11 01:39:05;;;;;;;0.00;0.00;;;;;;;;;;1746468;28;20237;-73
2023/01/11 01:39:56;;;;;;;0.00;0.00;;;;;;;;;;1748442;28;20278;-74
2023/01/11 01:40:48;;;;;;;0.00;0.00;;;;;;;;;;1743698;28;20233;-72
2023/01/11 01:41:39;;;;;;;0.00;0.00;;;;;;;;;;1746971;28;20218;-72
2023/01/11 01:42:32;;;;;;;0.00;0.00;;;;;;;;;;1743245;28;20289;-72
2023/01/11 01:43:23;;;;;;;0.00;0.00;;;;;;;;;;1745978;28;20263;-72
2023/01/11 01:44:34;;;;;;;0.00;0.00;;;;;;;;;;1743213;28;20275;-72
2023/01/11 01:45:26;;;;;;;0.00;0.00;;;;;;;;;;1746333;28;20565;-73
2023/01/11 01:46:18;;;;;;;0.00;0.00;;;;;;;;;;1746286;28;20198;-72
2023/01/11 01:47:09;;;;;;;0.00;0.00;;;;;;;;;;1746251;28;20453;-73
2023/01/11 01:48:04;;;;;;;0.00;0.00;;;;;;;;;;1750699;28;20650;-73
2023/01/11 01:48:58;;;;;;;0.00;0.00;;;;;;;;;;1743065;28;20226;-73
2023/01/11 01:49:50;;;;;;;0.00;0.00;;;;;;;;;;1745359;28;20311;-73
2023/01/11 01:50:42;;;;;;;0.00;0.00;;;;;;;;;;1747069;28;20745;-73
2023/01/11 01:51:36;;;;;;;0.10;0.10;;;;;;;;;;1743772;28;20249;-73
2023/01/11 01:52:28;;;;;;;0.00;0.00;;;;;;;;;;1740271;28;20241;-73
2023/01/11 01:53:21;;;;;;;0.00;0.00;;;;;;;;;;1745952;28;20206;-73
2023/01/11 01:54:14;;;;;;;0.00;0.00;;;;;;;;;;1742869;28;20255;-73
2023/01/11 01:55:10;;;;;;;0.00;0.00;;;;;;;;;;1739779;28;20199;-73
2023/01/11 01:56:03;;;;;;;0.00;0.00;;;;;;;;;;1742500;28;20660;-74
2023/01/11 01:56:57;;;;;;;0.00;0.00;;;;;;;;;;1746780;28;20624;-74
2023/01/11 01:57:48;;;;;;;0.00;0.00;;;;;;;;;;1750935;28;20209;-74
2023/01/11 01:58:44;;;;;;;0.00;0.00;;;;;;;;;;1743376;28;20206;-74
2023/01/11 01:59:35;;;;;;;0.00;0.00;;;;;;;;;;1749240;28;20267;-74
2023/01/11 02:00:27;;;;;;;0.00;0.00;;;;;;;;;;1743254;28;20195;-74
2023/01/11 02:02:28;;;;;;;0.00;0.00;;;;;;;;;;1748627;28;20205;-74
2023/01/11 02:03:22;;;;;;;0.00;0.00;;;;;;;;;;1748185;28;20237;-74
2023/01/11 02:04:18;;;;;;;0.00;0.00;;;;;;;;;;1743149;28;20653;-74
2023/01/11 02:05:11;;;;;;;0.00;0.00;;;;;;;;;;1745675;28;20660;-74
2023/01/11 02:06:02;;;;;;;0.00;0.00;;;;;;;;;;1745236;28;20233;-74
2023/01/11 02:06:57;;;;;;;0.00;0.00;;;;;;;;;;1745608;28;20327;-74
2023/01/11 02:07:50;;;;;;;0.00;0.00;;;;;;;;;;1746307;28;20270;-74
2023/01/11 02:08:44;;;;;;;0.00;0.00;;;;;;;;;;1747552;28;20201;-74
2023/01/11 02:09:38;;;;;;;0.00;0.00;;;;;;;;;;1749342;28;20711;-74
2023/01/11 02:10:30;;;;;;;0.00;0.00;;;;;;;;;;1746288;28;20747;-73
2023/01/11 02:11:31;;;;;;;0.00;0.00;;;;;;;;;;1745958;28;20251;-73
2023/01/11 02:12:25;;;;;;;0.00;0.00;;;;;;;;;;1745024;28;20186;-73
2023/01/11 02:13:16;;;;;;;0.00;0.00;;;;;;;;;;1745264;28;20198;-73
2023/01/11 02:14:11;;;;;;;0.00;0.00;;;;;;;;;;1746606;28;20224;-73
2023/01/11 02:15:05;;;;;;;0.00;0.00;;;;;;;;;;1744633;28;20628;-73
2023/01/11 02:16:07;;;;;;;0.00;0.00;;;;;;;;;;1746244;28;20221;-73
2023/01/11 02:16:58;;;;;;;0.00;0.00;;;;;;;;;;1745705;28;20492;-73
2023/01/11 02:17:50;;;;;;;0.00;0.00;;;;;;;;;;1750530;28;20209;-73
2023/01/11 02:18:41;;;;;;;0.00;0.00;;;;;;;;;;1746722;28;20580;-73
2023/01/11 02:19:40;;;;;;;0.00;0.00;;;;;;;;;;1742858;28;20256;-73
2023/01/11 02:20:41;;;;;;;0.00;0.00;;;;;;;;;;1746436;28;20234;-73
2023/01/11 02:21:41;;;;;;;0.00;0.00;;;;;;;;;;1745606;28;20202;-73
2023/01/11 02:22:59;;;;;;;0.00;0.00;;;;;;;;;;1749143;28;20719;-73
2023/01/11 02:24:10;;;;;;;0.00;0.00;;;;;;;;;;1717190;28;20209;-73
2023/01/11 02:25:14;;;;;;;0.00;0.00;;;;;;;;;;1737164;28;20259;-73
2023/01/11 02:26:23;;;;;;;0.00;0.00;;;;;;;;;;1737244;28;20698;-74
2023/01/11 02:27:28;;;;;;;0.00;0.00;;;;;;;;;;1740211;28;20207;-74
2023/01/11 02:28:25;;;;;;;0.00;0.00;;;;;;;;;;1749473;28;20190;-74
2023/01/11 02:29:22;;;;;;;0.00;0.00;;;;;;;;;;1746115;28;20191;-74
2023/01/11 02:30:17;;;;;;;0.00;0.00;;;;;;;;;;1745562;28;20190;-74
2023/01/11 02:31:11;;;;;;;0.00;0.00;;;;;;;;;;1745994;28;20234;-74
2023/01/11 02:32:09;;;;;;;0.00;0.00;;;;;;;;;;1745485;28;20237;-74
2023/01/11 02:33:05;;;;;;;0.00;0.00;;;;;;;;;;1741492;28;20191;-74
2023/01/11 02:34:05;;;;;;;0.00;0.00;;;;;;;;;;1745827;28;20284;-73
2023/01/11 02:35:02;;;;;;;0.00;0.00;;;;;;;;;;1744282;28;20305;-74
2023/01/11 02:36:02;;;;;;;0.00;0.00;;;;;;;;;;1745076;28;20226;-73
2023/01/11 02:37:02;;;;;;;0.00;0.00;;;;;;;;;;1741901;28;20223;-73
2023/01/11 02:38:00;;;;;;;0.00;0.00;;;;;;;;;;1750434;28;20590;-73
2023/01/11 02:38:56;;;;;;;0.00;0.00;;;;;;;;;;1746769;28;20211;-73
2023/01/11 02:39:54;;;;;;;0.00;0.00;;;;;;;;;;1743958;28;20216;-73
2023/01/11 02:40:49;;;;;;;0.00;0.00;;;;;;;;;;1746533;28;20286;-73
2023/01/11 02:45:29;;;;;;;0.00;0.00;;;;;;;;;;1743028;28;20567;-75
2023/01/11 02:46:24;;;;;;;0.00;0.00;;;;;;;;;;1745571;28;20215;-74
2023/01/11 02:47:18;;;;;;;0.00;0.00;;;;;;;;;;1745899;28;20191;-74
2023/01/11 02:48:14;;;;;;;0.00;0.00;;;;;;;;;;1745968;28;20580;-74
2023/01/11 02:49:09;;;;;;;0.00;0.00;;;;;;;;;;1745667;28;20209;-74
2023/01/11 02:50:03;;;;;;;0.00;0.00;;;;;;;;;;1743893;28;20620;-74
2023/01/11 02:50:58;;;;;;;0.00;0.00;;;;;;;;;;1744236;28;20237;-74
2023/01/11 02:51:53;;;;;;;0.00;0.00;;;;;;;;;;1745899;28;20206;-73
2023/01/11 02:52:49;;;;;;;0.00;0.00;;;;;;;;;;1746020;28;20210;-73
2023/01/11 02:53:43;;;;;;;0.00;0.00;;;;;;;;;;1745822;28;20236;-73
2023/01/11 02:54:36;;;;;;;0.00;0.00;;;;;;;;;;1745683;28;20738;-73
2023/01/11 02:55:29;;;;;;;0.00;0.00;;;;;;;;;;1746352;28;20202;-74
2023/01/11 02:56:22;;;;;;;0.00;0.00;;;;;;;;;;1746985;28;20241;-74
2023/01/11 02:57:14;;;;;;;0.00;0.00;;;;;;;;;;1745478;28;20202;-74
2023/01/11 02:58:08;;;;;;;0.00;0.00;;;;;;;;;;1746112;28;20202;-74
2023/01/11 02:59:00;;;;;;;0.00;0.00;;;;;;;;;;1745668;28;20302;-74
2023/01/11 02:59:56;;;;;;;0.00;0.00;;;;;;;;;;1745718;28;20260;-74
2023/01/11 03:00:48;;;;;;;0.00;0.00;;;;;;;;;;1743845;28;20234;-74
2023/01/11 03:01:46;;;;;;;0.00;0.00;;;;;;;;;;1746944;28;20217;-74
2023/01/11 03:02:37;;;;;;;0.00;0.00;;;;;;;;;;1749754;28;20629;-74
2023/01/11 03:03:29;;;;;;;0.00;0.00;;;;;;;;;;1745197;28;20210;-74
2023/01/11 03:04:24;;;;;;;0.00;0.00;;;;;;;;;;1743729;28;20293;-74
2023/01/11 03:05:16;;;;;;;0.00;0.00;;;;;;;;;;1745342;28;20194;-75
2023/01/11 03:06:11;;;;;;;0.00;0.00;;;;;;;;;;1741150;28;20218;-74
2023/01/11 03:07:11;;;;;;;0.00;0.00;;;;;;;;;;1744849;28;20352;-74
2023/01/11 03:08:07;;;;;;;0.00;0.00;;;;;;;;;;1741709;28;20191;-74
2023/01/11 03:09:13;;;;;;;0.00;0.00;;;;;;;;;;1742733;28;20231;-73
2023/01/11 03:10:12;;;;;;;0.00;0.00;;;;;;;;;;1744747;28;20195;-74
2023/01/11 03:11:06;;;;;;;0.00;0.00;;;;;;;;;;1742808;28;20234;-73
2023/01/11 03:13:23;;;;;;;0.00;0.00;;;;;;;;;;1733116;28;20202;-73
2023/01/11 03:14:20;;;;;;;0.00;0.00;;;;;;;;;;1746686;28;20197;-73
2023/01/11 03:15:19;;;;;;;0.00;0.00;;;;;;;;;;1745289;28;20202;-74
2023/01/11 03:16:16;;;;;;;0.00;0.00;;;;;;;;;;1740301;28;20230;-74
2023/01/11 03:17:12;;;;;;;0.00;0.00;;;;;;;;;;1745811;28;20201;-74
2023/01/11 03:18:10;;;;;;;0.00;0.00;;;;;;;;;;1741923;28;20494;-74
2023/01/11 03:19:10;;;;;;;0.00;0.00;;;;;;;;;;1744974;28;20198;-74
2023/01/11 03:20:05;;;;;;;0.00;0.00;;;;;;;;;;1743932;28;20195;-74
2023/01/11 03:21:01;;;;;;;0.00;0.00;;;;;;;;;;1746127;28;20230;-74
2023/01/11 03:21:56;;;;;;;0.00;0.00;;;;;;;;;;1744592;28;20353;-74
2023/01/11 03:22:55;;;;;;;0.00;0.00;;;;;;;;;;1744631;28;20221;-74
2023/01/11 03:23:53;;;;;;;0.00;0.00;;;;;;;;;;1742740;28;20803;-74
2023/01/11 03:24:47;;;;;;;0.00;0.00;;;;;;;;;;1745475;28;20279;-74
2023/01/11 03:25:43;;;;;;;0.00;0.00;;;;;;;;;;1745907;28;20758;-75
2023/01/11 03:26:37;;;;;;;0.00;0.00;;;;;;;;;;1743428;28;20664;-74
2023/01/11 03:27:32;;;;;;;0.00;0.00;;;;;;;;;;1739555;28;20253;-74
2023/01/11 03:28:27;;;;;;;0.00;0.00;;;;;;;;;;1746790;28;20255;-74
2023/01/11 03:29:23;;;;;;;0.00;0.00;;;;;;;;;;1747103;28;20536;-74
2023/01/11 03:30:15;;;;;;;0.00;0.00;;;;;;;;;;1745168;28;20202;-74
2023/01/11 03:31:14;;;;;;;0.00;0.00;;;;;;;;;;1746287;28;20272;-74
2023/01/11 03:32:12;;;;;;;0.00;0.00;;;;;;;;;;1745546;28;20207;-74
2023/01/11 03:33:07;;;;;;;0.00;0.00;;;;;;;;;;1741601;28;20256;-74
2023/01/11 03:34:00;;;;;;;0.00;0.00;;;;;;;;;;1746741;28;20274;-74
2023/01/11 03:34:55;;;;;;;0.00;0.00;;;;;;;;;;1747786;28;20206;-74
2023/01/11 03:35:49;;;;;;;0.00;0.00;;;;;;;;;;1746341;28;20257;-75
2023/01/11 03:36:42;;;;;;;0.00;0.00;;;;;;;;;;1745297;28;20229;-73
2023/01/11 03:37:38;;;;;;;0.00;0.00;;;;;;;;;;1745964;28;20595;-73
2023/01/11 03:38:30;;;;;;;0.00;0.00;;;;;;;;;;1746508;28;20198;-73
2023/01/11 03:39:25;;;;;;;0.00;0.00;;;;;;;;;;1744250;28;20357;-73
2023/01/11 03:40:18;;;;;;;0.00;0.00;;;;;;;;;;1745056;28;20206;-73
2023/01/11 03:41:12;;;;;;;0.00;0.00;;;;;;;;;;1746034;28;20809;-73
2023/01/11 03:42:05;;;;;;;0.00;0.00;;;;;;;;;;1744896;28;20581;-73
2023/01/11 03:43:12;;;;;;;0.00;0.00;;;;;;;;;;1750369;28;20256;-73
2023/01/11 03:44:04;;;;;;;0.00;0.00;;;;;;;;;;1745339;28;20198;-73
2023/01/11 03:44:58;;;;;;;0.00;0.00;;;;;;;;;;1747825;28;20213;-73
2023/01/11 03:45:51;;;;;;;0.00;0.00;;;;;;;;;;1746393;28;20241;-73
2023/01/11 03:46:47;;;;;;;0.00;0.00;;;;;;;;;;1746378;28;20206;-73
2023/01/11 03:47:38;;;;;;;0.00;0.00;;;;;;;;;;1749888;28;20305;-73
2023/01/11 03:48:33;;;;;;;0.00;0.00;;;;;;;;;;1747119;28;21548;-73
2023/01/11 03:49:27;;;;;;;0.00;0.00;;;;;;;;;;1748070;28;20211;-73
2023/01/11 03:50:20;;;;;;;0.00;0.00;;;;;;;;;;1744898;28;21522;-74
2023/01/11 03:51:12;;;;;;;0.00;0.00;;;;;;;;;;1746351;28;20207;-74
2023/01/11 03:52:06;;;;;;;0.00;0.00;;;;;;;;;;1746745;28;20578;-74
2023/01/11 03:52:58;;;;;;;0.00;0.00;;;;;;;;;;1750037;28;20206;-74
2023/01/11 03:53:50;;;;;;;0.00;0.00;;;;;;;;;;1746900;28;20194;-74
2023/01/11 03:54:42;;;;;;;0.00;0.00;;;;;;;;;;1747729;28;20217;-74
2023/01/11 03:55:37;;;;;;;0.00;0.00;;;;;;;;;;1739604;28;20269;-74
2023/01/11 03:56:30;;;;;;;0.00;0.00;;;;;;;;;;1737743;28;20215;-74
2023/01/11 03:57:23;;;;;;;0.00;0.00;;;;;;;;;;1747194;28;20213;-74
2023/01/11 03:58:15;;;;;;;0.00;0.00;;;;;;;;;;1750138;28;20628;-74
2023/01/11 03:59:07;;;;;;;0.00;0.00;;;;;;;;;;1747416;28;20344;-74
2023/01/11 03:59:58;;;;;;;0.00;0.00;;;;;;;;;;1749019;28;20239;-74
2023/01/11 04:00:50;;;;;;;0.00;0.00;;;;;;;;;;1746917;28;20352;-73
2023/01/11 04:01:41;;;;;;;0.00;0.00;;;;;;;;;;1747907;28;20214;-73
2023/01/11 04:02:35;;;;;;;0.00;0.00;;;;;;;;;;1749819;28;20209;-73
2023/01/11 04:03:27;;;;;;;0.00;0.00;;;;;;;;;;1746234;28;20301;-73
2023/01/11 04:04:18;;;;;;;0.00;0.00;;;;;;;;;;1748204;28;20202;-73
2023/01/11 04:05:10;;;;;;;0.00;0.00;;;;;;;;;;1747464;28;20222;-74
2023/01/11 04:06:02;;;;;;;0.00;0.00;;;;;;;;;;1743876;28;20233;-74
2023/01/11 04:06:53;;;;;;;0.00;0.00;;;;;;;;;;1747375;28;20210;-74
2023/01/11 04:07:45;;;;;;;0.00;0.00;;;;;;;;;;1747065;28;20271;-74
2023/01/11 04:08:36;;;;;;;0.00;0.00;;;;;;;;;;1746306;28;20270;-74
2023/01/11 04:09:28;;;;;;;0.00;0.00;;;;;;;;;;1748862;28;20252;-74
2023/01/11 04:10:19;;;;;;;0.00;0.00;;;;;;;;;;1746265;28;20206;-74
2023/01/11 04:11:11;;;;;;;0.00;0.00;;;;;;;;;;1747902;28;20206;-74
2023/01/11 04:12:02;;;;;;;0.00;0.00;;;;;;;;;;1745850;28;20210;-73
2023/01/11 04:12:54;;;;;;;0.00;0.00;;;;;;;;;;1751056;28;20205;-73
2023/01/11 04:13:45;;;;;;;0.00;0.00;;;;;;;;;;1747724;28;20561;-73
2023/01/11 04:14:37;;;;;;;0.00;0.00;;;;;;;;;;1749085;28;20219;-73
2023/01/11 04:15:30;;;;;;;0.00;0.00;;;;;;;;;;1746899;28;20504;-74
2023/01/11 04:16:22;;;;;;;0.00;0.00;;;;;;;;;;1746915;28;20555;-74
2023/01/11 04:17:13;;;;;;;0.00;0.00;;;;;;;;;;1746587;28;20206;-74
2023/01/11 04:18:07;;;;;;;0.00;0.00;;;;;;;;;;1747260;28;20206;-74
2023/01/11 04:18:58;;;;;;;0.00;0.00;;;;;;;;;;1746506;28;20680;-74
2023/01/11 04:19:49;;;;;;;0.00;0.00;;;;;;;;;;1746631;28;20202;-74
2023/01/11 04:20:41;;;;;;;0.00;0.00;;;;;;;;;;1745277;28;20234;-74
2023/01/11 04:21:33;;;;;;;0.00;0.00;;;;;;;;;;1747595;28;20207;-74
2023/01/11 04:22:24;;;;;;;0.00;0.00;;;;;;;;;;1748551;28;20354;-74
2023/01/11 04:23:16;;;;;;;0.00;0.00;;;;;;;;;;1749633;28;20203;-74
2023/01/11 04:24:07;;;;;;;0.00;0.00;;;;;;;;;;1747526;28;20434;-74
2023/01/11 04:24:59;;;;;;;0.00;0.00;;;;;;;;;;1748604;28;20206;-74
2023/01/11 04:25:50;;;;;;;0.00;0.00;;;;;;;;;;1747199;28;20621;-74
2023/01/11 04:26:42;;;;;;;0.00;0.00;;;;;;;;;;1747616;28;20663;-74
2023/01/11 04:27:33;;;;;;;0.00;0.00;;;;;;;;;;1749539;28;20221;-74
2023/01/11 04:28:25;;;;;;;0.00;0.00;;;;;;;;;;1748227;28;20236;-74
2023/01/11 04:29:16;;;;;;;0.00;0.00;;;;;;;;;;1744130;28;20278;-74
2023/01/11 04:30:09;;;;;;;0.00;0.00;;;;;;;;;;1746944;28;20206;-74
2023/01/11 04:31:00;;;;;;;0.00;0.00;;;;;;;;;;1739447;28;20692;-75
2023/01/11 04:31:52;;;;;;;0.00;0.00;;;;;;;;;;1738772;28;20228;-75
2023/01/11 04:32:43;;;;;;;0.00;0.00;;;;;;;;;;1744430;28;20266;-75
2023/01/11 04:33:36;;;;;;;0.00;0.00;;;;;;;;;;1747331;28;20209;-75
2023/01/11 04:34:27;;;;;;;0.00;0.00;;;;;;;;;;1748718;28;20232;-75
2023/01/11 04:35:20;;;;;;;0.00;0.00;;;;;;;;;;1746063;28;20202;-75
2023/01/11 04:36:11;;;;;;;0.00;0.00;;;;;;;;;;1747491;28;20667;-75
2023/01/11 04:37:03;;;;;;;0.00;0.00;;;;;;;;;;1746087;28;20202;-75
2023/01/11 04:37:54;;;;;;;0.00;0.00;;;;;;;;;;1746590;28;20578;-75
2023/01/11 04:38:46;;;;;;;0.00;0.00;;;;;;;;;;1747459;28;20481;-75
2023/01/11 04:39:37;;;;;;;0.00;0.00;;;;;;;;;;1748908;28;20499;-75
2023/01/11 04:40:29;;;;;;;0.00;0.00;;;;;;;;;;1744612;28;20723;-76
2023/01/11 04:42:30;;;;;;;0.00;0.00;;;;;;;;;;1748388;28;20218;-75
2023/01/11 04:43:21;;;;;;;0.00;0.00;;;;;;;;;;1749494;28;20233;-75
2023/01/11 04:44:13;;;;;;;0.00;0.00;;;;;;;;;;1746639;28;20328;-75
2023/01/11 04:45:04;;;;;;;0.00;0.00;;;;;;;;;;1748528;28;20203;-75
2023/01/11 04:45:58;;;;;;;0.00;0.00;;;;;;;;;;1746211;28;20230;-75
2023/01/11 04:46:50;;;;;;;0.00;0.00;;;;;;;;;;1747350;28;20287;-76
2023/01/11 04:47:42;;;;;;;0.00;0.00;;;;;;;;;;1750964;28;20217;-76
2023/01/11 04:48:33;;;;;;;0.00;0.00;;;;;;;;;;1746426;28;20576;-75
2023/01/11 04:49:25;;;;;;;0.00;0.00;;;;;;;;;;1748741;28;20268;-75
2023/01/11 04:50:17;;;;;;;0.00;0.00;;;;;;;;;;1745676;28;20288;-75
2023/01/11 04:51:09;;;;;;;0.00;0.00;;;;;;;;;;1748001;28;20302;-75
2023/01/11 04:52:01;;;;;;;0.00;0.00;;;;;;;;;;1747603;28;20244;-75
2023/01/11 04:52:52;;;;;;;0.00;0.00;;;;;;;;;;1751083;28;20217;-75
2023/01/11 04:53:44;;;;;;;0.00;0.00;;;;;;;;;;1746601;28;20233;-75
2023/01/11 04:54:35;;;;;;;0.00;0.00;;;;;;;;;;1748353;28;20209;-75
2023/01/11 04:55:27;;;;;;;0.00;0.00;;;;;;;;;;1747008;28;20455;-76
2023/01/11 04:56:18;;;;;;;0.00;0.00;;;;;;;;;;1746636;28;20263;-76
2023/01/11 04:57:12;;;;;;;0.00;0.00;;;;;;;;;;1746406;28;20528;-75
2023/01/11 04:58:03;;;;;;;0.00;0.00;;;;;;;;;;1742423;28;20268;-76
2023/01/11 04:58:55;;;;;;;0.00;0.00;;;;;;;;;;1745054;28;20256;-75
2023/01/11 04:59:46;;;;;;;0.00;0.00;;;;;;;;;;1748800;28;20209;-75
2023/01/11 05:00:38;;;;;;;0.00;0.00;;;;;;;;;;1744274;28;20226;-75
2023/01/11 05:01:29;;;;;;;0.00;0.00;;;;;;;;;;1746516;28;20616;-75
2023/01/11 05:02:21;;;;;;;0.00;0.00;;;;;;;;;;1746560;28;20615;-75
2023/01/11 05:03:12;;;;;;;0.00;0.00;;;;;;;;;;1745200;28;20288;-75
2023/01/11 05:04:04;;;;;;;0.00;0.00;;;;;;;;;;1746977;28;20237;-75
2023/01/11 05:04:56;;;;;;;0.00;0.00;;;;;;;;;;1746189;28;20275;-75
2023/01/11 05:05:55;;;;;;;0.00;0.00;;;;;;;;;;1744908;28;20238;-75
2023/01/11 05:06:46;;;;;;;0.00;0.00;;;;;;;;;;1746238;28;20666;-75
2023/01/11 05:07:39;;;;;;;0.00;0.00;;;;;;;;;;1746463;28;20217;-75
2023/01/11 05:08:30;;;;;;;0.00;0.00;;;;;;;;;;1745565;28;20259;-75
2023/01/11 05:09:22;;;;;;;0.00;0.00;;;;;;;;;;1746311;28;20267;-75
2023/01/11 05:10:13;;;;;;;0.00;0.00;;;;;;;;;;1745269;28;20258;-75
2023/01/11 05:11:06;;;;;;;0.00;0.00;;;;;;;;;;1746161;28;20229;-76
2023/01/11 05:11:57;;;;;;;0.00;0.00;;;;;;;;;;1746082;28;20207;-76
2023/01/11 05:12:49;;;;;;;0.00;0.00;;;;;;;;;;1746446;28;20259;-75
2023/01/11 05:13:40;;;;;;;0.00;0.00;;;;;;;;;;1746185;28;20218;-75
2023/01/11 05:14:32;;;;;;;0.00;0.00;;;;;;;;;;1746506;28;20198;-75
2023/01/11 05:15:23;;;;;;;0.00;0.00;;;;;;;;;;1744358;28;20259;-75
2023/01/11 05:16:17;;;;;;;0.00;0.00;;;;;;;;;;1746350;28;20248;-75
2023/01/11 05:17:12;;;;;;;0.00;0.00;;;;;;;;;;1746627;28;20202;-75
2023/01/11 05:18:04;;;;;;;0.00;0.00;;;;;;;;;;1742112;28;20214;-75
2023/01/11 05:18:56;;;;;;;0.00;0.00;;;;;;;;;;1746150;28;20256;-75
2023/01/11 05:19:48;;;;;;;0.00;0.00;;;;;;;;;;1746098;28;20213;-75
2023/01/11 05:20:41;;;;;;;0.00;0.00;;;;;;;;;;1744708;28;20269;-75
2023/01/11 05:21:34;;;;;;;0.00;0.00;;;;;;;;;;1746079;28;20305;-75
2023/01/11 05:22:26;;;;;;;0.00;0.00;;;;;;;;;;1746620;28;20207;-75
2023/01/11 05:23:17;;;;;;;0.00;0.00;;;;;;;;;;1746237;28;20632;-75
2023/01/11 05:24:11;;;;;;;0.00;0.00;;;;;;;;;;1746537;28;21000;-75
2023/01/11 05:25:05;;;;;;;0.00;0.00;;;;;;;;;;1744913;28;20221;-75
2023/01/11 05:25:57;;;;;;;0.00;0.00;;;;;;;;;;1744248;28;20230;-74
2023/01/11 05:26:49;;;;;;;0.00;0.00;;;;;;;;;;1746246;28;20275;-75
2023/01/11 05:27:41;;;;;;;0.00;0.00;;;;;;;;;;1746366;28;20206;-75
2023/01/11 05:28:32;;;;;;;0.10;0.10;;;;;;;;;;1748309;28;20214;-75
2023/01/11 05:29:24;;;;;;;0.00;0.00;;;;;;;;;;1748843;28;20586;-75
2023/01/11 05:30:15;;;;;;;0.00;0.00;;;;;;;;;;1747143;28;20301;-75
2023/01/11 05:31:07;;;;;;;0.00;0.00;;;;;;;;;;1743275;28;20669;-75
2023/01/11 05:31:58;;;;;;;0.00;0.00;;;;;;;;;;1746796;28;20210;-75
2023/01/11 05:32:50;;;;;;;0.00;0.00;;;;;;;;;;1746653;28;20549;-75
2023/01/11 05:33:41;;;;;;;0.00;0.00;;;;;;;;;;1744901;28;20563;-75
2023/01/11 05:34:33;;;;;;;0.00;0.00;;;;;;;;;;1746102;28;20202;-75
2023/01/11 05:35:24;;;;;;;0.00;0.00;;;;;;;;;;1744411;28;20691;-75
2023/01/11 05:36:19;;;;;;;0.00;0.00;;;;;;;;;;1746051;28;20194;-75